Time;durP1;ratioP1;P1;durP2;ratioP2;P2;SDS_P1;SDS_P2;PMS_P1;PMS_P2;Temp;Humidity;BMP_temperature;BMP_pressure;BME280_temperature;BME280_humidity;BME280_pressure;Samples;Min_cycle;Max_cycle;Signal;HPM_P1;HPM_P2
2021/07/11 00:02:22;;;;;;;17.63;11.40;;;16.60;99.90;;;;;;5117205;28;20031;-74
2021/07/11 00:04:48;;;;;;;21.08;13.52;;;16.60;99.90;;;;;;5117461;28;20035;-74
2021/07/11 00:07:15;;;;;;;18.33;13.38;;;16.50;99.90;;;;;;5117518;28;20051;-74
2021/07/11 00:09:44;;;;;;;17.30;12.90;;;16.50;99.90;;;;;;5116783;28;20035;-74
2021/07/11 00:12:10;;;;;;;18.17;11.52;;;16.50;99.90;;;;;;5117407;28;20043;-73
2021/07/11 00:14:35;;;;;;;14.55;9.18;;;16.50;99.90;;;;;;5117114;28;20066;-73
2021/07/11 00:17:02;;;;;;;13.75;9.65;;;16.40;99.90;;;;;;5117167;28;20039;-74
2021/07/11 00:19:27;;;;;;;12.40;9.32;;;16.40;99.90;;;;;;5116666;27;20067;-74
2021/07/11 00:21:53;;;;;;;11.02;8.15;;;16.40;99.90;;;;;;5117185;28;20070;-74
2021/07/11 00:24:19;;;;;;;14.82;9.52;;;16.30;99.90;;;;;;5116781;28;20057;-74
2021/07/11 00:26:44;;;;;;;10.50;8.70;;;16.30;99.90;;;;;;5116913;28;20586;-73
2021/07/11 00:29:10;;;;;;;12.52;8.80;;;16.30;99.90;;;;;;5116607;28;20122;-74
2021/07/11 00:31:36;;;;;;;12.52;9.27;;;16.20;99.90;;;;;;5116613;28;20403;-74
2021/07/11 00:34:01;;;;;;;9.90;8.63;;;16.20;99.90;;;;;;5116873;28;20380;-74
2021/07/11 00:36:27;;;;;;;9.55;8.23;;;16.10;99.90;;;;;;5116695;28;20376;-73
2021/07/11 00:38:53;;;;;;;11.00;8.02;;;16.20;99.90;;;;;;5116786;28;20085;-74
2021/07/11 00:41:18;;;;;;;9.93;7.68;;;16.20;99.90;;;;;;5116403;28;20028;-73
2021/07/11 00:43:44;;;;;;;11.20;8.20;;;16.20;99.90;;;;;;5116376;28;20067;-73
2021/07/11 00:46:09;;;;;;;9.57;8.10;;;16.20;99.90;;;;;;5115365;28;20050;-73
2021/07/11 00:48:35;;;;;;;10.25;8.07;;;16.30;99.90;;;;;;5115480;28;20093;-73
2021/07/11 00:51:01;;;;;;;10.90;8.77;;;16.30;99.90;;;;;;5116170;28;20148;-73
2021/07/11 00:53:27;;;;;;;9.90;8.40;;;16.30;99.90;;;;;;5116464;28;20035;-74
2021/07/11 00:55:53;;;;;;;9.25;8.25;;;16.20;99.90;;;;;;5116268;28;20046;-74
2021/07/11 00:58:18;;;;;;;11.43;8.10;;;16.20;99.90;;;;;;5116183;28;20043;-73
2021/07/11 01:00:49;;;;;;;10.73;8.02;;;16.20;99.90;;;;;;5116060;28;20031;-73
2021/07/11 01:03:37;;;;;;;11.68;8.95;;;16.20;99.90;;;;;;5116127;28;20039;-73
2021/07/11 01:06:03;;;;;;;10.15;8.88;;;16.20;99.90;;;;;;5116293;28;20047;-73
2021/07/11 01:08:55;;;;;;;13.48;9.85;;;16.20;99.90;;;;;;5115726;28;20043;-74
2021/07/11 01:11:24;;;;;;;11.23;8.57;;;16.20;99.90;;;;;;5116129;28;20114;-74
2021/07/11 01:13:52;;;;;;;12.25;8.63;;;16.20;99.90;;;;;;5116194;28;20063;-74
2021/07/11 01:16:25;;;;;;;11.80;9.27;;;16.20;99.90;;;;;;5116014;28;20047;-74
2021/07/11 01:18:52;;;;;;;10.50;7.95;;;16.20;99.90;;;;;;5115620;28;20089;-74
2021/07/11 01:21:21;;;;;;;11.75;9.20;;;16.20;99.90;;;;;;5116019;28;20036;-74
2021/07/11 01:24:07;;;;;;;13.45;9.13;;;16.10;99.90;;;;;;5115781;28;20040;-74
2021/07/11 01:26:33;;;;;;;11.57;9.20;;;16.10;99.90;;;;;;5115821;28;20101;-74
2021/07/11 01:29:00;;;;;;;12.35;8.30;;;16.10;99.90;;;;;;5115338;28;20043;-73
2021/07/11 01:31:27;;;;;;;12.23;8.55;;;16.20;99.90;;;;;;5115666;28;20080;-74
2021/07/11 01:33:55;;;;;;;11.02;9.07;;;16.20;99.90;;;;;;5115551;28;20536;-73
2021/07/11 01:36:21;;;;;;;10.60;9.27;;;16.10;99.90;;;;;;5115398;28;20039;-73
2021/07/11 01:38:49;;;;;;;12.77;9.02;;;16.20;99.90;;;;;;5115307;28;20048;-73
2021/07/11 01:41:17;;;;;;;11.45;8.77;;;16.20;99.90;;;;;;5115130;28;20073;-73
2021/07/11 01:43:46;;;;;;;12.70;8.57;;;16.20;99.90;;;;;;5115234;28;20036;-73
2021/07/11 01:46:12;;;;;;;13.05;9.10;;;16.10;99.90;;;;;;5115821;28;20130;-74
2021/07/11 01:48:39;;;;;;;10.63;8.95;;;16.10;99.90;;;;;;5114820;28;20527;-74
2021/07/11 01:51:05;;;;;;;15.32;9.55;;;16.20;99.90;;;;;;5115318;28;20066;-73
2021/07/11 01:53:37;;;;;;;14.00;9.98;;;16.20;99.90;;;;;;5115186;28;20425;-73
2021/07/11 01:56:06;;;;;;;13.98;10.13;;;16.20;99.90;;;;;;5114910;28;20063;-73
2021/07/11 01:58:32;;;;;;;12.02;10.15;;;16.30;99.90;;;;;;5114761;28;20076;-73
2021/07/11 02:01:00;;;;;;;12.98;9.00;;;16.30;99.90;;;;;;5114171;28;20031;-73
2021/07/11 02:03:26;;;;;;;13.38;10.18;;;16.30;99.90;;;;;;5114943;28;20494;-73
2021/07/11 02:05:56;;;;;;;12.00;10.00;;;16.30;99.90;;;;;;5115209;27;20036;-73
2021/07/11 02:08:22;;;;;;;11.80;9.50;;;16.20;99.90;;;;;;5115079;28;20118;-74
2021/07/11 02:10:50;;;;;;;10.32;8.57;;;16.30;99.90;;;;;;5114427;28;20035;-73
2021/07/11 02:13:52;;;;;;;10.85;9.23;;;16.20;99.90;;;;;;5114815;28;20036;-74
2021/07/11 02:16:29;;;;;;;13.60;10.13;;;16.20;99.90;;;;;;5101769;28;20403;-74
2021/07/11 02:18:57;;;;;;;16.65;9.82;;;16.20;99.90;;;;;;5114275;28;20031;-74
2021/07/11 02:21:25;;;;;;;13.45;10.85;;;16.20;99.90;;;;;;5114378;28;20067;-74
2021/07/11 02:23:52;;;;;;;15.23;10.85;;;16.10;99.90;;;;;;5114592;28;20040;-74
2021/07/11 02:26:19;;;;;;;15.00;10.88;;;16.10;99.90;;;;;;5114387;28;20357;-74
2021/07/11 02:28:45;;;;;;;10.93;9.60;;;15.90;99.90;;;;;;5113508;28;20112;-74
2021/07/11 02:31:12;;;;;;;13.40;10.73;;;15.90;99.90;;;;;;5114554;27;20036;-74
2021/07/11 02:33:40;;;;;;;12.27;10.10;;;15.90;99.90;;;;;;5114308;28;20114;-74
2021/07/11 02:36:21;;;;;;;14.05;10.18;;;15.90;99.90;;;;;;5114436;28;20093;-74
2021/07/11 02:38:49;;;;;;;15.65;10.63;;;15.70;99.90;;;;;;5114055;28;20035;-74
2021/07/11 02:41:17;;;;;;;12.52;9.93;;;15.70;99.90;;;;;;5114494;28;20055;-74
2021/07/11 02:43:45;;;;;;;13.30;10.32;;;15.60;99.90;;;;;;5114827;28;20114;-74
2021/07/11 02:46:16;;;;;;;14.02;11.13;;;15.60;99.90;;;;;;5114261;28;20036;-74
2021/07/11 02:48:43;;;;;;;13.30;9.52;;;15.60;99.90;;;;;;5113993;28;20135;-74
2021/07/11 02:51:11;;;;;;;11.80;9.95;;;15.70;99.90;;;;;;5114199;28;20080;-74
2021/07/11 02:53:38;;;;;;;13.65;9.18;;;15.60;99.90;;;;;;5114284;28;20043;-74
2021/07/11 02:56:05;;;;;;;12.93;10.63;;;15.60;99.90;;;;;;5114202;28;20051;-74
2021/07/11 02:58:34;;;;;;;14.93;10.52;;;15.60;99.90;;;;;;5113565;28;20394;-74
2021/07/11 03:01:01;;;;;;;13.55;10.93;;;15.60;99.90;;;;;;5114260;28;20039;-74
2021/07/11 03:03:27;;;;;;;13.32;11.00;;;15.50;99.90;;;;;;5113975;28;20399;-74
2021/07/11 03:05:54;;;;;;;12.23;9.85;;;15.50;99.90;;;;;;5114111;28;20122;-74
2021/07/11 03:08:20;;;;;;;11.98;10.57;;;15.60;99.90;;;;;;5114297;28;20403;-74
2021/07/11 03:10:47;;;;;;;14.50;10.65;;;15.60;99.90;;;;;;5113545;28;20035;-74
2021/07/11 03:13:13;;;;;;;15.02;12.00;;;15.50;99.90;;;;;;5113887;28;20057;-74
2021/07/11 03:15:39;;;;;;;17.65;12.05;;;15.50;99.90;;;;;;5113897;28;20046;-74
2021/07/11 03:18:05;;;;;;;19.20;13.02;;;15.60;99.90;;;;;;5113852;28;20035;-74
2021/07/11 03:20:31;;;;;;;24.05;15.57;;;15.60;99.90;;;;;;5113273;28;20064;-74
2021/07/11 03:22:59;;;;;;;25.48;15.75;;;15.70;99.90;;;;;;5113735;28;20118;-74
2021/07/11 03:25:25;;;;;;;21.23;15.27;;;15.70;99.90;;;;;;5113716;28;20040;-73
2021/07/11 03:27:51;;;;;;;21.00;14.40;;;15.70;99.90;;;;;;5114373;28;20424;-73
2021/07/11 03:30:20;;;;;;;16.92;12.68;;;15.80;99.90;;;;;;5113443;28;20118;-73
2021/07/11 03:32:56;;;;;;;15.40;12.80;;;15.80;99.90;;;;;;5113926;28;20129;-74
2021/07/11 03:35:45;;;;;;;16.25;11.57;;;15.80;99.90;;;;;;5113862;28;20120;-74
2021/07/11 03:38:15;;;;;;;14.85;11.70;;;15.80;99.90;;;;;;5113854;28;20035;-74
2021/07/11 03:40:43;;;;;;;14.35;10.65;;;15.80;99.90;;;;;;5113117;28;20074;-74
2021/07/11 03:43:11;;;;;;;15.13;11.13;;;15.80;99.90;;;;;;5113533;28;20560;-74
2021/07/11 03:45:40;;;;;;;11.82;9.73;;;15.80;99.90;;;;;;5113531;28;20386;-74
2021/07/11 03:48:28;;;;;;;15.35;12.15;;;15.80;99.90;;;;;;5113492;28;20453;-73
2021/07/11 03:51:01;;;;;;;14.85;11.15;;;15.90;99.90;;;;;;5113720;28;20035;-73
2021/07/11 03:53:30;;;;;;;17.58;11.93;;;15.90;99.90;;;;;;5113490;28;20032;-74
2021/07/11 03:55:58;;;;;;;15.07;10.75;;;15.80;99.90;;;;;;5113483;28;20046;-73
2021/07/11 03:58:25;;;;;;;13.90;10.98;;;15.90;99.90;;;;;;5113377;28;20063;-74
2021/07/11 04:00:52;;;;;;;15.07;11.27;;;15.90;99.90;;;;;;5112992;28;20074;-74
2021/07/11 04:03:20;;;;;;;13.68;11.48;;;15.90;99.90;;;;;;5113356;28;20047;-74
2021/07/11 04:05:47;;;;;;;16.00;11.93;;;15.90;99.90;;;;;;5113216;28;20712;-74
2021/07/11 04:08:15;;;;;;;13.57;10.60;;;16.00;99.90;;;;;;5113615;28;20035;-74
2021/07/11 04:10:41;;;;;;;13.63;11.38;;;16.00;99.90;;;;;;5111835;28;20043;-74
2021/07/11 04:13:08;;;;;;;15.07;11.65;;;16.00;99.90;;;;;;5113473;28;20054;-74
2021/07/11 04:15:34;;;;;;;12.52;10.52;;;16.00;99.90;;;;;;5113667;28;20427;-74
2021/07/11 04:18:08;;;;;;;16.55;12.43;;;16.00;99.90;;;;;;5113408;28;20058;-74
2021/07/11 04:20:36;;;;;;;15.52;11.65;;;16.10;99.90;;;;;;5112811;28;20047;-74
2021/07/11 04:23:04;;;;;;;16.35;11.77;;;16.10;99.90;;;;;;5114177;28;20115;-74
2021/07/11 04:25:32;;;;;;;14.80;11.98;;;16.10;99.90;;;;;;5116744;28;20031;-74
2021/07/11 04:28:00;;;;;;;16.05;11.93;;;16.10;99.90;;;;;;5116755;28;20036;-73
2021/07/11 04:30:27;;;;;;;17.42;11.27;;;16.20;99.90;;;;;;5115648;28;20096;-73
2021/07/11 04:32:52;;;;;;;15.90;11.95;;;16.30;99.90;;;;;;5117071;28;20500;-73
2021/07/11 04:35:18;;;;;;;20.45;11.65;;;16.30;99.90;;;;;;5116775;28;20040;-73
2021/07/11 04:37:44;;;;;;;15.93;12.45;;;16.40;99.90;;;;;;5116831;28;20038;-73
2021/07/11 04:40:10;;;;;;;17.52;11.95;;;16.40;99.90;;;;;;5116447;28;20039;-73
2021/07/11 04:42:36;;;;;;;13.32;11.38;;;16.50;99.90;;;;;;5117267;27;20081;-74
2021/07/11 04:45:03;;;;;;;14.10;11.52;;;16.60;99.90;;;;;;5116525;28;20036;-74
2021/07/11 04:47:30;;;;;;;15.43;11.23;;;16.70;99.90;;;;;;5116684;28;20117;-73
2021/07/11 04:49:56;;;;;;;13.10;10.30;;;16.80;99.90;;;;;;5116473;28;20483;-73
2021/07/11 04:52:22;;;;;;;13.65;11.48;;;16.90;99.90;;;;;;5115706;28;20036;-73
2021/07/11 04:54:48;;;;;;;14.82;10.60;;;17.10;99.90;;;;;;5116998;28;20074;-73
2021/07/11 04:57:15;;;;;;;12.90;10.30;;;17.30;99.90;;;;;;5116152;28;20043;-73
2021/07/11 04:59:41;;;;;;;14.80;10.30;;;17.40;99.90;;;;;;5110272;27;20032;-73
2021/07/11 05:02:06;;;;;;;14.23;10.23;;;17.50;99.90;;;;;;5116184;28;20515;-73
2021/07/11 05:04:32;;;;;;;12.75;10.48;;;17.50;99.90;;;;;;5116783;28;20115;-73
2021/07/11 05:06:58;;;;;;;13.00;10.20;;;17.60;99.90;;;;;;5116273;28;20111;-73
2021/07/11 05:09:24;;;;;;;13.10;9.18;;;17.60;99.90;;;;;;5115604;28;20110;-74
2021/07/11 05:11:50;;;;;;;13.60;10.07;;;17.60;99.90;;;;;;5116286;28;20035;-73
2021/07/11 05:14:17;;;;;;;13.02;9.68;;;17.50;99.90;;;;;;5116450;28;20494;-73
2021/07/11 05:16:43;;;;;;;11.52;10.00;;;17.50;99.90;;;;;;5115889;28;20122;-73
2021/07/11 05:19:09;;;;;;;13.25;9.82;;;17.50;99.90;;;;;;5115654;28;20027;-73
2021/07/11 05:21:35;;;;;;;12.23;10.45;;;17.30;99.90;;;;;;5115661;28;20084;-73
2021/07/11 05:24:01;;;;;;;11.45;9.82;;;17.40;99.90;;;;;;5115833;28;20039;-74
2021/07/11 05:26:26;;;;;;;10.27;9.18;;;17.50;99.90;;;;;;5115808;28;20047;-73
2021/07/11 05:28:52;;;;;;;12.32;9.70;;;17.70;99.90;;;;;;5115427;28;20475;-73
2021/07/11 05:31:19;;;;;;;13.55;9.90;;;18.00;99.90;;;;;;5115552;28;20031;-73
2021/07/11 05:33:44;;;;;;;12.70;9.55;;;18.20;99.90;;;;;;5115712;28;20066;-74
2021/07/11 05:36:11;;;;;;;13.75;9.18;;;18.40;99.90;;;;;;5115612;28;20035;-73
2021/07/11 05:38:38;;;;;;;10.52;8.52;;;18.60;99.90;;;;;;5115306;28;20172;-74
2021/07/11 05:41:04;;;;;;;11.25;9.15;;;18.70;99.90;;;;;;5115265;28;20036;-73
2021/07/11 05:43:31;;;;;;;13.60;9.45;;;18.90;99.90;;;;;;5115960;28;20035;-73
2021/07/11 05:45:57;;;;;;;11.75;8.80;;;19.00;99.90;;;;;;5115232;28;20043;-73
2021/07/11 05:48:24;;;;;;;10.98;8.23;;;19.10;99.90;;;;;;5115276;28;20115;-73
2021/07/11 05:50:50;;;;;;;14.25;8.93;;;19.10;99.90;;;;;;5114897;28;20468;-73
2021/07/11 05:53:16;;;;;;;9.93;7.35;;;19.30;99.90;;;;;;5115880;28;20039;-74
2021/07/11 05:55:41;;;;;;;11.77;7.75;;;19.40;99.90;;;;;;5115108;28;20042;-74
2021/07/11 05:58:08;;;;;;;10.27;8.10;;;19.40;99.90;;;;;;5115759;28;20051;-76
2021/07/11 06:00:34;;;;;;;9.30;7.75;;;19.30;99.90;;;;;;5114680;27;20483;-73
2021/07/11 06:03:00;;;;;;;8.98;7.47;;;19.30;99.90;;;;;;5114961;28;20042;-73
2021/07/11 06:05:26;;;;;;;8.32;6.57;;;19.30;99.90;;;;;;5115446;28;20032;-73
2021/07/11 06:07:51;;;;;;;9.50;7.57;;;19.40;99.90;;;;;;5115548;28;20067;-73
2021/07/11 06:10:17;;;;;;;10.55;7.47;;;19.50;99.90;;;;;;5114479;28;20153;-73
2021/07/11 06:12:44;;;;;;;9.90;6.45;;;19.60;99.90;;;;;;5114914;28;20399;-73
2021/07/11 06:15:10;;;;;;;8.45;6.90;;;19.70;99.90;;;;;;5114749;28;20043;-71
2021/07/11 06:17:36;;;;;;;11.88;6.95;;;19.80;99.90;;;;;;5115276;28;20103;-71
2021/07/11 06:20:10;;;;;;;11.73;8.05;;;20.00;99.90;;;;;;5114165;28;20070;-70
2021/07/11 06:22:37;;;;;;;9.95;7.15;;;20.00;99.90;;;;;;5114579;28;20035;-70
2021/07/11 06:25:07;;;;;;;9.63;7.22;;;20.10;99.90;;;;;;5115102;28;20090;-71
2021/07/11 06:27:38;;;;;;;8.82;7.55;;;20.20;99.90;;;;;;5114932;28;20049;-70
2021/07/11 06:30:10;;;;;;;10.65;7.28;;;20.40;99.90;;;;;;5114286;28;20036;-71
2021/07/11 06:32:36;;;;;;;9.18;7.20;;;20.50;99.90;;;;;;5114579;28;20089;-71
2021/07/11 06:35:04;;;;;;;9.23;6.90;;;20.50;99.90;;;;;;5114577;28;20044;-71
2021/07/11 06:37:29;;;;;;;8.43;6.32;;;20.60;99.90;;;;;;5114975;28;20096;-71
2021/07/11 06:39:55;;;;;;;9.63;7.30;;;20.80;99.90;;;;;;5113908;28;20031;-72
2021/07/11 06:42:21;;;;;;;9.23;6.75;;;20.90;99.90;;;;;;5114099;28;20063;-72
2021/07/11 06:44:46;;;;;;;9.07;6.38;;;20.90;99.90;;;;;;5114162;28;20058;-72
2021/07/11 06:47:12;;;;;;;9.18;6.95;;;20.90;99.60;;;;;;5114336;28;20505;-72
2021/07/11 06:49:38;;;;;;;10.05;6.88;;;21.00;99.90;;;;;;5114132;28;20036;-72
2021/07/11 06:52:04;;;;;;;8.38;6.60;;;21.10;99.50;;;;;;5114034;27;20038;-72
2021/07/11 06:54:30;;;;;;;8.98;7.18;;;21.30;99.50;;;;;;5114308;28;20032;-72
2021/07/11 06:56:55;;;;;;;11.05;6.60;;;21.20;98.70;;;;;;5114006;28;20506;-72
2021/07/11 06:59:22;;;;;;;7.53;5.97;;;21.20;98.50;;;;;;5114299;28;20122;-72
2021/07/11 07:01:48;;;;;;;8.65;6.93;;;21.30;98.70;;;;;;5114032;28;20119;-72
2021/07/11 07:04:13;;;;;;;9.23;7.20;;;21.30;98.70;;;;;;5113906;28;20046;-72
2021/07/11 07:06:39;;;;;;;9.35;7.40;;;21.40;98.20;;;;;;5114498;28;20039;-72
2021/07/11 07:09:05;;;;;;;10.32;6.80;;;21.40;98.10;;;;;;5113492;28;20460;-72
2021/07/11 07:11:30;;;;;;;10.30;6.50;;;21.60;98.40;;;;;;5113795;28;20035;-72
2021/07/11 07:13:56;;;;;;;8.77;7.35;;;21.70;98.10;;;;;;5113188;28;20046;-72
2021/07/11 07:16:22;;;;;;;9.63;6.40;;;21.90;98.20;;;;;;5114075;28;20059;-72
2021/07/11 07:18:57;;;;;;;9.25;7.03;;;21.80;97.50;;;;;;5117022;28;20047;-72
2021/07/11 07:21:23;;;;;;;10.98;6.10;;;22.10;97.10;;;;;;5098389;28;20055;-72
2021/07/11 07:23:49;;;;;;;9.50;7.10;;;21.90;97.30;;;;;;5114513;28;20046;-72
2021/07/11 07:26:14;;;;;;;7.80;6.35;;;22.10;96.90;;;;;;5113970;28;20119;-72
2021/07/11 07:28:41;;;;;;;9.00;7.07;;;22.10;96.60;;;;;;5113598;28;20039;-73
2021/07/11 07:31:06;;;;;;;7.82;6.38;;;22.30;96.40;;;;;;5113660;28;20040;-72
2021/07/11 07:33:32;;;;;;;7.28;6.40;;;22.50;95.90;;;;;;5114343;28;20058;-72
2021/07/11 07:35:58;;;;;;;9.15;6.43;;;22.70;95.90;;;;;;5113924;28;20067;-72
2021/07/11 07:38:23;;;;;;;8.43;6.97;;;22.60;95.30;;;;;;5113687;28;20606;-72
2021/07/11 07:40:50;;;;;;;8.82;6.35;;;22.70;95.00;;;;;;5113223;28;20046;-72
2021/07/11 07:43:15;;;;;;;10.65;6.85;;;22.90;95.60;;;;;;5113491;28;20136;-72
2021/07/11 07:45:43;;;;;;;8.55;7.20;;;23.10;95.10;;;;;;5113736;28;20134;-72
2021/07/11 07:48:09;;;;;;;10.30;7.78;;;23.20;94.70;;;;;;5113437;28;20036;-72
2021/07/11 07:50:35;;;;;;;11.20;6.63;;;23.40;94.80;;;;;;5113011;28;20038;-73
2021/07/11 07:53:01;;;;;;;7.78;6.43;;;23.60;94.30;;;;;;5113500;28;20065;-72
2021/07/11 07:55:29;;;;;;;8.20;6.60;;;23.70;93.30;;;;;;5110305;28;20044;-72
2021/07/11 07:57:55;;;;;;;7.70;6.57;;;23.60;93.70;;;;;;5097344;28;20103;-72
2021/07/11 08:00:21;;;;;;;7.82;6.25;;;23.70;94.90;;;;;;5105639;28;20032;-73
2021/07/11 08:02:47;;;;;;;8.40;6.75;;;23.90;94.60;;;;;;5106121;28;20130;-74
2021/07/11 08:05:13;;;;;;;7.32;6.30;;;24.00;94.90;;;;;;5103082;28;20044;-73
2021/07/11 08:08:01;;;;;;;7.45;6.15;;;23.90;94.80;;;;;;5095733;28;20036;-72
2021/07/11 08:11:06;;;;;;;7.88;7.07;;;23.90;93.80;;;;;;5096101;28;20125;-71
2021/07/11 08:13:53;;;;;;;9.65;7.10;;;24.00;92.90;;;;;;5081176;28;20105;-69
2021/07/11 08:16:19;;;;;;;8.75;7.18;;;24.30;92.00;;;;;;5095451;28;20040;-71
2021/07/11 08:18:45;;;;;;;8.75;6.75;;;24.30;92.90;;;;;;5096767;28;20039;-71
2021/07/11 08:21:11;;;;;;;10.90;7.80;;;24.50;92.20;;;;;;5096523;28;20040;-71
2021/07/11 08:23:36;;;;;;;7.82;6.93;;;24.60;91.10;;;;;;5095842;28;20428;-71
2021/07/11 08:26:02;;;;;;;7.60;6.80;;;24.50;92.40;;;;;;5096909;28;20054;-71
2021/07/11 08:28:28;;;;;;;9.43;7.30;;;24.60;92.50;;;;;;5096105;28;20397;-71
2021/07/11 08:30:54;;;;;;;10.93;8.38;;;24.90;91.40;;;;;;5096190;28;20043;-71
2021/07/11 08:33:20;;;;;;;9.63;7.28;;;24.70;90.60;;;;;;5096716;28;20043;-71
2021/07/11 08:35:46;;;;;;;9.30;7.10;;;24.80;91.90;;;;;;5096959;28;20072;-71
2021/07/11 08:38:12;;;;;;;8.15;7.28;;;24.90;92.20;;;;;;5096324;28;20118;-72
2021/07/11 08:40:37;;;;;;;9.90;7.30;;;24.90;90.80;;;;;;5096322;28;20119;-72
2021/07/11 08:43:05;;;;;;;10.32;7.78;;;25.00;87.90;;;;;;5096705;28;20418;-72
2021/07/11 08:45:31;;;;;;;11.57;9.02;;;25.00;90.50;;;;;;5094837;28;20044;-72
2021/07/11 08:47:57;;;;;;;13.13;8.63;;;25.20;90.00;;;;;;5096373;28;20119;-72
2021/07/11 08:50:23;;;;;;;10.23;8.20;;;25.20;90.90;;;;;;5095889;28;20174;-72
2021/07/11 08:52:48;;;;;;;9.82;7.97;;;25.30;90.00;;;;;;5096214;28;20036;-72
2021/07/11 08:55:17;;;;;;;9.23;8.05;;;25.20;89.90;;;;;;5095750;28;20044;-71
2021/07/11 08:57:48;;;;;;;9.43;7.72;;;24.90;90.20;;;;;;5095773;28;20032;-72
2021/07/11 09:00:15;;;;;;;12.50;8.48;;;24.60;90.60;;;;;;5095525;28;20069;-72
2021/07/11 09:02:41;;;;;;;10.15;8.00;;;24.40;91.10;;;;;;5096530;28;20048;-72
2021/07/11 09:05:19;;;;;;;10.00;8.65;;;24.00;92.50;;;;;;5095854;28;20063;-74
2021/07/11 09:07:59;;;;;;;10.55;8.68;;;24.00;93.10;;;;;;5096327;28;20039;-72
2021/07/11 09:10:34;;;;;;;11.68;9.38;;;24.00;92.30;;;;;;5094843;28;20036;-73
2021/07/11 09:13:01;;;;;;;9.00;7.55;;;23.80;93.50;;;;;;5094892;28;20035;-73
2021/07/11 09:15:32;;;;;;;9.25;7.38;;;24.20;92.90;;;;;;5094114;28;20123;-73
2021/07/11 09:17:58;;;;;;;9.52;8.07;;;24.50;91.60;;;;;;5096023;28;20507;-73
2021/07/11 09:20:24;;;;;;;12.45;8.55;;;24.80;90.60;;;;;;5095093;28;20040;-73
2021/07/11 09:22:58;;;;;;;11.77;9.00;;;24.40;91.30;;;;;;5095856;28;20046;-73
2021/07/11 09:25:23;;;;;;;8.57;7.63;;;24.40;92.00;;;;;;5095980;28;20044;-73
2021/07/11 09:27:49;;;;;;;9.80;8.48;;;24.20;92.20;;;;;;5095411;28;20039;-73
2021/07/11 09:30:17;;;;;;;9.90;8.70;;;23.90;92.30;;;;;;5095504;28;20384;-73
2021/07/11 09:32:44;;;;;;;11.15;8.57;;;23.70;92.30;;;;;;5093871;28;20545;-73
2021/07/11 09:35:18;;;;;;;10.38;7.20;;;23.70;92.50;;;;;;5095254;28;20044;-73
2021/07/11 09:37:49;;;;;;;9.23;7.93;;;23.60;93.50;;;;;;5095372;28;20115;-73
2021/07/11 09:40:17;;;;;;;9.88;7.65;;;23.60;93.50;;;;;;5094674;28;20430;-73
2021/07/11 09:42:45;;;;;;;11.13;8.15;;;23.60;92.80;;;;;;5094885;28;20499;-73
2021/07/11 09:45:16;;;;;;;8.95;7.35;;;23.50;93.30;;;;;;5094881;28;20082;-73
2021/07/11 09:47:41;;;;;;;9.90;8.88;;;23.40;94.10;;;;;;5103348;28;20178;-73
2021/07/11 09:50:10;;;;;;;10.40;8.52;;;23.20;94.90;;;;;;5104368;28;20049;-72
2021/07/11 09:52:39;;;;;;;9.18;7.90;;;23.30;94.30;;;;;;5111913;28;20048;-73
2021/07/11 09:55:07;;;;;;;10.23;8.15;;;23.30;94.50;;;;;;5115588;28;20036;-71
2021/07/11 09:57:41;;;;;;;9.18;7.40;;;23.40;94.90;;;;;;5115173;28;20480;-72
2021/07/11 10:00:13;;;;;;;9.15;8.05;;;23.50;95.20;;;;;;5114883;28;20039;-72
2021/07/11 10:02:40;;;;;;;9.90;7.78;;;23.70;93.50;;;;;;5115283;28;20046;-72
2021/07/11 10:05:08;;;;;;;9.20;8.30;;;23.70;93.10;;;;;;5114823;28;20039;-71
2021/07/11 10:07:34;;;;;;;10.23;7.97;;;23.70;94.10;;;;;;5114826;28;20058;-73
2021/07/11 10:10:01;;;;;;;9.45;7.22;;;23.70;94.70;;;;;;5114370;28;20040;-73
2021/07/11 10:12:27;;;;;;;10.88;7.43;;;23.90;93.70;;;;;;5115101;28;20500;-72
2021/07/11 10:14:53;;;;;;;9.30;7.85;;;24.10;94.30;;;;;;5115235;28;20047;-72
2021/07/11 10:17:19;;;;;;;10.13;8.00;;;24.10;92.90;;;;;;5115015;28;20039;-72
2021/07/11 10:19:50;;;;;;;10.73;8.02;;;24.00;93.00;;;;;;5114834;28;20047;-73
2021/07/11 10:22:18;;;;;;;9.13;7.72;;;24.00;92.50;;;;;;5114500;28;20513;-72
2021/07/11 10:24:47;;;;;;;9.48;7.93;;;24.00;92.50;;;;;;5114310;28;20447;-73
2021/07/11 10:27:21;;;;;;;9.52;7.65;;;24.00;92.30;;;;;;5114661;27;20035;-73
2021/07/11 10:29:48;;;;;;;8.82;7.93;;;24.10;91.60;;;;;;5114441;28;20129;-73
2021/07/11 10:32:40;;;;;;;9.82;7.45;;;24.00;92.30;;;;;;5114345;28;20038;-73
2021/07/11 10:35:18;;;;;;;8.63;7.72;;;24.10;92.00;;;;;;5112682;28;20056;-72
2021/07/11 10:37:47;;;;;;;9.10;8.07;;;24.00;91.80;;;;;;5114410;28;20043;-72
2021/07/11 10:40:16;;;;;;;11.23;8.98;;;23.90;92.00;;;;;;5114181;28;20059;-73
2021/07/11 10:42:42;;;;;;;15.27;8.40;;;24.00;92.40;;;;;;5114838;28;20046;-72
2021/07/11 10:45:10;;;;;;;9.10;8.13;;;24.00;91.80;;;;;;5114232;28;20043;-72
2021/07/11 10:47:37;;;;;;;9.05;7.43;;;24.20;89.50;;;;;;5115104;28;20073;-72
2021/07/11 10:50:08;;;;;;;12.40;7.85;;;24.40;89.80;;;;;;5113886;28;20031;-73
2021/07/11 10:52:37;;;;;;;11.50;8.27;;;24.40;90.50;;;;;;5114444;28;20039;-72
2021/07/11 10:55:08;;;;;;;10.32;7.63;;;24.30;89.70;;;;;;5114878;28;20039;-72
2021/07/11 10:57:37;;;;;;;9.35;8.13;;;24.10;89.10;;;;;;5114155;28;20432;-72
2021/07/11 11:00:15;;;;;;;9.02;7.80;;;24.00;90.00;;;;;;5112508;28;20031;-72
2021/07/11 11:02:45;;;;;;;10.30;7.30;;;24.20;88.80;;;;;;5114522;28;20053;-72
2021/07/11 11:05:40;;;;;;;10.43;7.47;;;24.10;90.40;;;;;;5114168;28;20055;-70
2021/07/11 11:08:10;;;;;;;8.27;7.05;;;23.90;90.70;;;;;;5114479;28;20031;-70
2021/07/11 11:10:38;;;;;;;8.60;7.32;;;24.00;90.50;;;;;;5113876;28;20067;-70
2021/07/11 11:13:17;;;;;;;8.57;7.22;;;24.10;90.40;;;;;;5113770;28;20032;-71
2021/07/11 11:15:45;;;;;;;10.02;7.18;;;24.00;90.70;;;;;;5113921;28;20054;-72
2021/07/11 11:18:12;;;;;;;9.45;7.35;;;24.10;90.10;;;;;;5114065;28;20048;-72
2021/07/11 11:20:38;;;;;;;7.57;6.35;;;24.10;90.30;;;;;;5113589;28;20062;-73
2021/07/11 11:23:09;;;;;;;8.18;7.38;;;24.00;90.60;;;;;;5114040;28;20043;-72
2021/07/11 11:25:34;;;;;;;10.85;7.60;;;23.90;91.00;;;;;;5113742;28;20100;-72
2021/07/11 11:28:00;;;;;;;8.68;7.15;;;23.90;90.70;;;;;;5113699;28;20376;-70
2021/07/11 11:30:26;;;;;;;8.45;6.93;;;23.80;91.00;;;;;;5113309;28;20042;-72
2021/07/11 11:32:55;;;;;;;8.02;6.88;;;23.80;91.30;;;;;;5116336;28;20050;-71
2021/07/11 11:35:22;;;;;;;10.05;7.97;;;23.60;91.40;;;;;;5117860;28;20046;-71
2021/07/11 11:37:51;;;;;;;9.13;7.43;;;23.70;91.20;;;;;;5118362;28;20066;-72
2021/07/11 11:40:18;;;;;;;10.43;7.82;;;23.70;91.70;;;;;;5117401;28;20043;-71
2021/07/11 11:42:46;;;;;;;8.10;7.30;;;23.50;93.00;;;;;;5118210;28;20031;-71
2021/07/11 11:45:13;;;;;;;11.30;7.65;;;23.50;94.30;;;;;;5117527;28;20073;-70
2021/07/11 11:47:39;;;;;;;12.05;7.80;;;23.50;94.70;;;;;;5118034;28;20035;-72
2021/07/11 11:50:15;;;;;;;9.38;7.35;;;23.30;95.70;;;;;;5110200;28;20036;-72
2021/07/11 11:52:41;;;;;;;9.07;6.22;;;23.30;96.30;;;;;;5106227;28;20032;-72
2021/07/11 11:55:07;;;;;;;7.20;6.50;;;23.20;96.60;;;;;;5110248;28;20488;-72
2021/07/11 11:57:41;;;;;;;7.22;5.82;;;23.00;97.60;;;;;;5117651;28;20035;-73
2021/07/11 12:00:16;;;;;;;10.00;6.50;;;22.90;99.30;;;;;;5098882;28;20051;-72
2021/07/11 12:02:42;;;;;;;7.53;6.47;;;22.80;99.20;;;;;;5117650;28;20119;-72
2021/07/11 12:05:13;;;;;;;9.40;6.70;;;22.80;99.20;;;;;;5117414;28;20036;-71
2021/07/11 12:07:41;;;;;;;8.13;6.30;;;22.70;99.70;;;;;;5116327;28;20081;-72
2021/07/11 12:10:07;;;;;;;9.73;7.43;;;22.70;99.70;;;;;;5117385;28;20031;-73
2021/07/11 12:12:34;;;;;;;8.00;6.47;;;22.70;99.90;;;;;;5116877;28;20061;-73
2021/07/11 12:15:00;;;;;;;9.63;6.78;;;22.70;99.90;;;;;;5106120;28;20032;-71
2021/07/11 12:17:33;;;;;;;12.80;6.88;;;22.80;99.60;;;;;;5106794;28;20062;-72
2021/07/11 12:20:00;;;;;;;10.77;7.88;;;22.80;99.90;;;;;;5114227;28;20085;-72
2021/07/11 12:22:31;;;;;;;8.25;7.10;;;22.60;99.90;;;;;;5117053;28;20114;-72
2021/07/11 12:25:22;;;;;;;7.38;6.43;;;22.60;99.90;;;;;;5117231;28;20089;-72
2021/07/11 12:27:58;;;;;;;8.93;7.35;;;22.70;99.90;;;;;;5116952;28;20475;-73
2021/07/11 12:30:24;;;;;;;11.27;7.00;;;22.80;99.90;;;;;;5116447;28;20036;-73
2021/07/11 12:32:54;;;;;;;8.40;6.75;;;22.90;99.90;;;;;;5117090;28;20535;-73
2021/07/11 12:35:26;;;;;;;9.35;7.38;;;23.10;99.90;;;;;;5117259;28;20074;-71
2021/07/11 12:38:00;;;;;;;9.23;6.63;;;23.10;99.90;;;;;;5116820;28;20040;-71
2021/07/11 12:40:29;;;;;;;12.57;6.80;;;23.30;99.90;;;;;;5116263;28;20032;-73
2021/07/11 12:43:18;;;;;;;8.30;6.70;;;23.50;99.90;;;;;;5116580;28;20047;-72
2021/07/11 12:45:57;;;;;;;10.40;6.38;;;23.70;99.10;;;;;;5116426;28;20040;-73